createdAt,value
2023-01-09T00:02:13.395Z,37.08
2023-01-09T00:07:20.236Z,38.88
2023-01-09T00:12:28.096Z,36.30
2023-01-09T00:17:34.648Z,43.67
2023-01-09T00:22:41.212Z,39.72
2023-01-09T00:27:49.317Z,38.78
2023-01-09T00:32:56.712Z,34.67
2023-01-09T00:38:04.964Z,35.55
2023-01-09T00:43:12.848Z,33.20
2023-01-09T00:48:26.981Z,39.03
2023-01-09T00:53:37.836Z,38.45
2023-01-09T00:58:46.247Z,33.67
2023-01-09T01:03:53.059Z,31.35
2023-01-09T01:08:59.593Z,41.60
2023-01-09T01:14:07.528Z,34.90
2023-01-09T01:19:14.043Z,31.70
2023-01-09T01:24:20.847Z,34.15
2023-01-09T01:29:31.314Z,37.53
2023-01-09T01:34:37.762Z,33.92
2023-01-09T01:39:45.273Z,32.55
2023-01-09T01:45:11.418Z,31.92
2023-01-09T01:50:33.942Z,33.73
2023-01-09T01:55:45.502Z,33.58
2023-01-09T02:00:53.771Z,31.38
2023-01-09T02:06:00.756Z,27.70
2023-01-09T02:11:09.335Z,30.75
2023-01-09T02:16:37.078Z,30.83
2023-01-09T02:21:53.413Z,35.53
2023-01-09T02:27:37.955Z,36.70
2023-01-09T02:33:01.271Z,30.67
2023-01-09T02:38:19.604Z,32.05
2023-01-09T02:43:29.509Z,30.90
2023-01-09T02:48:37.569Z,30.27
2023-01-09T02:54:21.597Z,30.30
2023-01-09T02:59:34.483Z,35.13
2023-01-09T03:04:55.767Z,37.33
2023-01-09T03:10:08.410Z,35.38
2023-01-09T03:15:17.633Z,34.78
2023-01-09T03:20:29.149Z,33.38
2023-01-09T03:25:36.341Z,33.22
2023-01-09T03:30:42.811Z,30.73
2023-01-09T03:35:50.992Z,32.58
2023-01-09T03:40:57.661Z,36.80
2023-01-09T03:46:05.012Z,33.92
2023-01-09T03:51:14.007Z,36.22
2023-01-09T03:56:20.292Z,36.15
2023-01-09T04:01:26.909Z,34.17
2023-01-09T04:06:34.750Z,32.22
2023-01-09T04:11:41.284Z,31.02
2023-01-09T04:16:48.345Z,36.20
2023-01-09T04:21:56.353Z,29.17
2023-01-09T04:27:02.900Z,33.08
2023-01-09T04:32:09.219Z,32.17
2023-01-09T04:37:17.174Z,31.98
2023-01-09T04:42:24.882Z,32.57
2023-01-09T04:47:33.052Z,31.52
2023-01-09T04:52:41.763Z,26.73
2023-01-09T04:57:48.286Z,28.65
2023-01-09T05:02:54.738Z,29.15
2023-01-09T05:08:03.066Z,30.88
2023-01-09T05:13:10.569Z,35.55
2023-01-09T05:18:17.312Z,29.58
2023-01-09T05:23:24.988Z,35.13
2023-01-09T05:28:31.482Z,33.30
2023-01-09T05:33:37.814Z,34.15
2023-01-09T05:38:45.990Z,60.13
2023-01-09T05:43:52.381Z,35.93
2023-01-09T05:48:58.826Z,31.25
2023-01-09T05:54:07.855Z,30.67
2023-01-09T06:04:20.437Z,30.13
2023-01-09T06:09:28.868Z,30.42
2023-01-09T06:14:35.375Z,30.03
2023-01-09T06:19:42.201Z,30.45
2023-01-09T06:24:51.036Z,27.50
2023-01-09T06:29:58.650Z,26.65
2023-01-09T06:35:08.316Z,26.77
2023-01-09T06:40:16.894Z,28.35
2023-01-09T06:45:23.723Z,29.00
2023-01-09T06:50:30.848Z,30.17
2023-01-09T06:55:38.747Z,27.83
2023-01-09T07:00:45.224Z,29.60
2023-01-09T07:05:52.391Z,28.85
2023-01-09T07:11:00.627Z,26.77
2023-01-09T07:16:09.113Z,28.33
2023-01-09T07:21:15.946Z,29.38
2023-01-09T07:26:24.469Z,37.33
2023-01-09T07:31:31.129Z,28.27
2023-01-09T07:36:37.449Z,30.33
2023-01-09T07:41:46.470Z,29.15
2023-01-09T07:46:54.803Z,29.83
2023-01-09T07:52:01.656Z,21.95
2023-01-09T07:57:11.557Z,25.33
2023-01-09T08:02:18.497Z,29.57
2023-01-09T08:07:25.219Z,25.35
2023-01-09T08:12:33.178Z,22.90
2023-01-09T08:17:39.697Z,29.52
2023-01-09T08:22:50.469Z,28.00
2023-01-09T08:27:58.935Z,25.23
2023-01-09T08:33:06.289Z,22.43
2023-01-09T08:38:13.276Z,29.92
2023-01-09T08:43:38.799Z,29.95
2023-01-09T08:48:45.939Z,23.70
2023-01-09T08:53:52.553Z,25.30
2023-01-09T08:59:00.582Z,30.10
2023-01-09T09:04:07.603Z,22.48
2023-01-09T09:09:14.157Z,25.52
2023-01-09T09:14:39.551Z,28.40
2023-01-09T09:19:46.092Z,23.38
2023-01-09T09:24:52.484Z,23.15
2023-01-09T09:30:00.391Z,24.52
2023-01-09T09:35:07.741Z,24.38
2023-01-09T09:40:22.303Z,17.42
2023-01-09T09:45:45.266Z,23.35
2023-01-09T09:51:25.890Z,20.88
2023-01-09T09:56:39.702Z,24.58
2023-01-09T10:01:55.566Z,22.67
2023-01-09T10:07:09.659Z,21.48
2023-01-09T10:12:28.858Z,21.85
2023-01-09T10:18:00.925Z,26.55
2023-01-09T10:23:31.189Z,29.45
2023-01-09T10:29:06.072Z,26.77
2023-01-09T10:34:31.446Z,22.17
2023-01-09T10:39:45.430Z,21.05
2023-01-09T10:44:59.171Z,25.80
2023-01-09T10:50:22.854Z,20.58
2023-01-09T10:55:40.035Z,21.30
2023-01-09T11:00:50.006Z,21.35
2023-01-09T11:05:59.885Z,26.10
2023-01-09T11:11:06.851Z,23.27
2023-01-09T11:16:22.875Z,22.02
2023-01-09T11:21:36.469Z,22.70
2023-01-09T11:26:42.934Z,20.95
2023-01-09T11:31:56.138Z,21.77
2023-01-09T11:37:11.710Z,27.38
2023-01-09T11:42:44.485Z,20.80
2023-01-09T11:47:51.488Z,23.25
2023-01-09T11:53:19.308Z,25.35
2023-01-09T11:58:35.521Z,21.85
2023-01-09T12:04:18.928Z,23.35
2023-01-09T12:09:38.883Z,23.60
2023-01-09T12:15:01.945Z,20.92
2023-01-09T12:20:34.670Z,26.95
2023-01-09T12:25:55.749Z,25.15
2023-01-09T12:31:19.583Z,26.50
2023-01-09T12:36:44.374Z,31.83
2023-01-09T12:42:16.497Z,32.42
2023-01-09T12:47:47.254Z,28.90
2023-01-09T12:53:07.852Z,34.53
2023-01-09T12:58:31.266Z,24.73
2023-01-09T13:03:43.665Z,27.67
2023-01-09T13:08:55.067Z,22.20
2023-01-09T13:14:07.137Z,23.17
2023-01-09T13:19:20.070Z,23.23
2023-01-09T13:24:36.112Z,29.60
2023-01-09T13:29:48.146Z,25.63
2023-01-09T13:34:57.971Z,24.30
2023-01-09T13:40:08.001Z,22.48
2023-01-09T13:45:25.894Z,21.80
2023-01-09T13:50:32.784Z,20.00
2023-01-09T13:55:39.477Z,19.98
2023-01-09T14:01:00.303Z,18.60
2023-01-09T14:06:21.877Z,20.98
2023-01-09T14:11:29.454Z,23.13
2023-01-09T14:16:39.725Z,25.85
2023-01-09T14:21:55.010Z,30.25
2023-01-09T14:27:03.450Z,29.35
2023-01-09T14:32:57.846Z,22.88
2023-01-09T14:50:51.557Z,17.88
2023-01-09T14:56:06.090Z,19.48
2023-01-09T15:01:23.162Z,20.17
2023-01-09T15:06:37.438Z,22.38
2023-01-09T15:11:44.431Z,22.27
2023-01-09T15:16:51.396Z,24.75
2023-01-09T15:22:05.451Z,20.15
2023-01-09T15:27:19.504Z,26.23
2023-01-09T15:32:33.878Z,25.67
2023-01-09T15:37:42.221Z,19.40
2023-01-09T15:43:00.300Z,20.70
2023-01-09T15:48:27.319Z,21.45
2023-01-09T15:53:36.079Z,19.33
2023-01-09T15:58:47.656Z,22.02
2023-01-09T16:03:56.110Z,25.55
2023-01-09T16:09:06.014Z,22.95
2023-01-09T16:14:20.730Z,27.35
2023-01-09T16:19:47.041Z,20.02
2023-01-09T16:24:57.928Z,25.27
2023-01-09T16:30:07.442Z,25.48
2023-01-09T16:40:30.216Z,21.95
2023-01-09T16:45:39.467Z,25.85
2023-01-09T16:50:47.415Z,23.60
2023-01-09T16:55:56.488Z,25.73
2023-01-09T17:06:12.632Z,22.13
2023-01-09T17:11:25.102Z,19.35
2023-01-09T17:16:33.010Z,16.63
2023-01-09T17:21:39.949Z,17.02
2023-01-09T17:27:09.820Z,18.40
2023-01-09T17:32:17.671Z,17.90
2023-01-09T17:37:24.666Z,16.75
2023-01-09T17:42:33.176Z,17.65
2023-01-09T17:47:39.663Z,18.17
2023-01-09T17:52:47.863Z,22.52
2023-01-09T17:57:56.083Z,16.90
2023-01-09T18:03:03.440Z,22.60
2023-01-09T18:08:14.516Z,17.42
2023-01-09T18:13:23.383Z,18.67
2023-01-09T18:18:30.055Z,19.73
2023-01-09T18:23:38.061Z,21.75
2023-01-09T18:28:47.155Z,20.83
2023-01-09T18:39:04.015Z,20.15
2023-01-09T18:44:13.402Z,21.45
2023-01-09T18:49:20.332Z,26.15
2023-01-09T18:54:31.717Z,26.10
2023-01-09T18:59:41.424Z,27.63
2023-01-09T19:04:49.204Z,31.52
2023-01-09T19:09:58.518Z,27.48
2023-01-09T19:15:11.826Z,30.85
2023-01-09T19:20:20.070Z,33.15
2023-01-09T19:25:27.181Z,29.40
2023-01-09T19:30:37.044Z,31.65
2023-01-09T19:35:46.305Z,28.98
2023-01-09T19:40:54.195Z,33.53
2023-01-09T19:46:03.777Z,32.23
2023-01-09T19:51:11.275Z,34.92
2023-01-09T19:56:21.238Z,35.58
2023-01-09T20:01:32.709Z,32.58
2023-01-09T20:06:45.084Z,37.70
2023-01-09T20:11:52.946Z,37.70
2023-01-09T20:17:04.644Z,32.75
2023-01-09T20:22:12.434Z,38.28
2023-01-09T20:27:19.819Z,37.92
2023-01-09T20:32:30.286Z,35.83
2023-01-09T20:37:40.632Z,39.33
2023-01-09T20:42:47.913Z,47.28
2023-01-09T20:47:57.076Z,44.10
2023-01-09T20:58:13.147Z,42.55
2023-01-09T21:03:21.884Z,43.75
2023-01-09T21:08:28.470Z,47.67
2023-01-09T21:13:35.292Z,50.78
2023-01-09T21:18:45.857Z,37.53
2023-01-09T21:23:54.720Z,44.40
2023-01-09T21:29:08.585Z,48.55
2023-01-09T21:34:20.309Z,47.35
2023-01-09T21:39:27.232Z,43.03
2023-01-09T21:44:51.241Z,48.97
2023-01-09T21:49:59.154Z,52.90
2023-01-09T21:55:06.153Z,40.00
2023-01-09T22:00:15.171Z,43.70
2023-01-09T22:05:24.953Z,46.42
2023-01-09T22:10:32.711Z,46.38
2023-01-09T22:15:39.724Z,43.97
2023-01-09T22:20:48.870Z,39.42
2023-01-09T22:31:01.478Z,45.90
2023-01-09T22:36:31.627Z,38.53
2023-01-09T22:41:38.576Z,36.63
2023-01-09T22:46:45.013Z,41.78
2023-01-09T22:51:52.806Z,38.63
2023-01-09T22:56:59.287Z,42.53
2023-01-09T23:02:07.203Z,37.22
2023-01-09T23:07:15.239Z,39.15
2023-01-09T23:12:22.011Z,35.75
2023-01-09T23:17:28.526Z,44.03
2023-01-09T23:22:36.593Z,43.97
2023-01-09T23:27:43.616Z,40.45
2023-01-09T23:32:50.008Z,37.83
2023-01-09T23:37:58.080Z,38.95
2023-01-09T23:43:10.719Z,38.57
2023-01-09T23:48:19.219Z,38.90
2023-01-09T23:53:27.305Z,41.33
2023-01-09T23:58:34.689Z,43.28
